Fair Oaks, CA (95628)

3:18 PM PDT on March 22, 2017 (GMT -0700)
MC9529 | | Change Station

Elev 219 ft 38.64 °N, 121.23 °W | Updated 21 minutes ago

Mostly Cloudy
Mostly Cloudy
54.0 °F
Feels Like 54.0 °F
N
0.0
Wind Variable Wind from NNE
Gusts 3.0 mph

Today
High -- | Low -- °F
--% Chance of Precip.
Yesterday
High -- | Low -- °F
Precip. -- in
Pressure 30.04 in
Visibility 8.0 miles
Clouds Scattered Clouds 3200 ft
Scattered Clouds 5500 ft
Dew Point 48 °F
Humidity 79%
Rainfall 0.72 in
Snow Depth Not available.
7:04 AM 7:19 PM
Waning Crescent, 29% visible
METAR KMHR 222145Z 14008KT 8SM SCT032 SCT055 11/08 A3004 -RA
Pressure 30.04 in
Visibility 8.0 miles
Clouds Scattered Clouds 3200 ft
Scattered Clouds 5500 ft
Dew Point 48 °F
Humidity 79%
Rainfall 0.72 in
Snow Depth Not available.
7:04 AM 7:19 PM
Waning Crescent, 29% visible
METAR KMHR 222145Z 14008KT 8SM SCT032 SCT055 11/08 A3004 -RA

Get Severe Weather Alerts

Thanks for signing up!

Be on the lookout for a verification email in your inbox.

You'll start receiving the daily forecast at 8 AM.

×

10-Day Weather Forecast

Almanac

Astronomy

Mar. 22, 2017 Rise Set
Actual Time
Civil Twilight
Nautical Twilight
Astronomical Twilight
Moon
Length of Visible Light
Length of Day
Tomorrow will be .
, % of the Moon is Illuminated

Today's Extremes

State Highs State Lows

Community

WunderPhotos

Upload Photos

1,962,540 photos uploaded!

WunderBlog® & News

Nearby

Air Quality

  Air Quality AQ Index Pollutant
Not available.

Snow Depth

Station Depth Elevation

Earthquake Activity

City Distance Mag. Time & Date
Minimum magnitude displayed is 2.5.

Earthquake Activity

City Distance Mag. Time & Date
Minimum magnitude displayed is 2.5.

Coastal Water Temperatures

Place Temperature

Stations

Nearby Weather Stations

Station Location Temp. Windchill Dew Point Humidity Wind Precip. Elev Updated Type
                   

Watches & Warnings

There are currently no watches in effect.